sensor_id;sensor_type;location;lat;lon;timestamp;P1;durP1;ratioP1;P2;durP2;ratioP2
15342;SDS011;7771;48.478;8.936;2022-10-22T00:01:41;2.67;;;1.10;;
15342;SDS011;7771;48.478;8.936;2022-10-22T00:04:08;2.50;;;0.80;;
15342;SDS011;7771;48.478;8.936;2022-10-22T00:06:35;3.67;;;1.17;;
15342;SDS011;7771;48.478;8.936;2022-10-22T00:09:02;1.67;;;0.70;;
15342;SDS011;7771;48.478;8.936;2022-10-22T00:11:30;2.37;;;0.80;;
15342;SDS011;7771;48.478;8.936;2022-10-22T00:13:56;1.00;;;0.80;;
15342;SDS011;7771;48.478;8.936;2022-10-22T00:16:23;1.57;;;0.87;;
15342;SDS011;7771;48.478;8.936;2022-10-22T00:18:50;0.87;;;0.50;;
15342;SDS011;7771;48.478;8.936;2022-10-22T00:21:17;0.67;;;0.60;;
15342;SDS011;7771;48.478;8.936;2022-10-22T00:23:44;0.50;;;0.40;;
15342;SDS011;7771;48.478;8.936;2022-10-22T00:26:11;0.57;;;0.57;;
15342;SDS011;7771;48.478;8.936;2022-10-22T00:28:38;2.13;;;0.57;;
15342;SDS011;7771;48.478;8.936;2022-10-22T00:31:05;0.87;;;0.60;;
15342;SDS011;7771;48.478;8.936;2022-10-22T00:33:31;0.63;;;0.43;;
15342;SDS011;7771;48.478;8.936;2022-10-22T00:35:59;0.93;;;0.57;;
15342;SDS011;7771;48.478;8.936;2022-10-22T00:38:26;1.03;;;0.70;;
15342;SDS011;7771;48.478;8.936;2022-10-22T00:40:54;2.03;;;0.60;;
15342;SDS011;7771;48.478;8.936;2022-10-22T00:43:21;0.93;;;0.60;;
15342;SDS011;7771;48.478;8.936;2022-10-22T00:45:48;4.27;;;0.97;;
15342;SDS011;7771;48.478;8.936;2022-10-22T00:48:20;1.40;;;0.70;;
15342;SDS011;7771;48.478;8.936;2022-10-22T00:50:49;1.63;;;0.87;;
15342;SDS011;7771;48.478;8.936;2022-10-22T00:53:19;1.23;;;0.50;;
15342;SDS011;7771;48.478;8.936;2022-10-22T00:55:45;1.10;;;0.50;;
15342;SDS011;7771;48.478;8.936;2022-10-22T00:58:11;1.10;;;0.73;;
15342;SDS011;7771;48.478;8.936;2022-10-22T01:00:38;1.23;;;0.80;;
15342;SDS011;7771;48.478;8.936;2022-10-22T01:03:04;5.47;;;1.47;;
15342;SDS011;7771;48.478;8.936;2022-10-22T01:05:32;0.93;;;0.70;;
15342;SDS011;7771;48.478;8.936;2022-10-22T01:07:58;2.30;;;0.83;;
15342;SDS011;7771;48.478;8.936;2022-10-22T01:10:31;0.97;;;0.80;;
15342;SDS011;7771;48.478;8.936;2022-10-22T01:13:01;3.20;;;0.80;;
15342;SDS011;7771;48.478;8.936;2022-10-22T01:15:36;1.77;;;0.67;;
15342;SDS011;7771;48.478;8.936;2022-10-22T01:18:22;0.67;;;0.60;;
15342;SDS011;7771;48.478;8.936;2022-10-22T01:20:55;2.37;;;0.77;;
15342;SDS011;7771;48.478;8.936;2022-10-22T01:26:05;1.73;;;0.77;;
15342;SDS011;7771;48.478;8.936;2022-10-22T01:28:44;2.50;;;0.83;;
15342;SDS011;7771;48.478;8.936;2022-10-22T01:31:23;0.93;;;0.70;;
15342;SDS011;7771;48.478;8.936;2022-10-22T01:33:50;0.70;;;0.63;;
15342;SDS011;7771;48.478;8.936;2022-10-22T01:36:17;2.50;;;0.70;;
15342;SDS011;7771;48.478;8.936;2022-10-22T01:38:45;3.03;;;1.70;;
15342;SDS011;7771;48.478;8.936;2022-10-22T01:41:12;1.00;;;0.80;;
15342;SDS011;7771;48.478;8.936;2022-10-22T01:43:39;0.90;;;0.60;;
15342;SDS011;7771;48.478;8.936;2022-10-22T01:46:06;2.40;;;0.63;;
15342;SDS011;7771;48.478;8.936;2022-10-22T01:48:38;1.53;;;0.70;;
15342;SDS011;7771;48.478;8.936;2022-10-22T01:53:59;1.33;;;0.70;;
15342;SDS011;7771;48.478;8.936;2022-10-22T01:56:30;1.20;;;0.70;;
15342;SDS011;7771;48.478;8.936;2022-10-22T01:59:03;1.07;;;0.67;;
15342;SDS011;7771;48.478;8.936;2022-10-22T02:04:12;0.50;;;0.50;;
15342;SDS011;7771;48.478;8.936;2022-10-22T02:06:37;1.20;;;0.30;;
15342;SDS011;7771;48.478;8.936;2022-10-22T02:09:04;1.90;;;0.87;;
15342;SDS011;7771;48.478;8.936;2022-10-22T02:11:30;1.07;;;0.50;;
15342;SDS011;7771;48.478;8.936;2022-10-22T02:13:57;1.40;;;0.37;;
15342;SDS011;7771;48.478;8.936;2022-10-22T02:16:27;2.50;;;0.60;;
15342;SDS011;7771;48.478;8.936;2022-10-22T02:18:54;1.47;;;0.70;;
15342;SDS011;7771;48.478;8.936;2022-10-22T02:21:20;0.60;;;0.60;;
15342;SDS011;7771;48.478;8.936;2022-10-22T02:23:47;3.83;;;0.70;;
15342;SDS011;7771;48.478;8.936;2022-10-22T02:26:21;1.03;;;0.70;;
15342;SDS011;7771;48.478;8.936;2022-10-22T02:28:51;1.17;;;0.90;;
15342;SDS011;7771;48.478;8.936;2022-10-22T02:31:22;1.27;;;1.00;;
15342;SDS011;7771;48.478;8.936;2022-10-22T02:33:49;1.17;;;1.00;;
15342;SDS011;7771;48.478;8.936;2022-10-22T02:36:15;1.00;;;0.70;;
15342;SDS011;7771;48.478;8.936;2022-10-22T02:38:41;0.77;;;0.53;;
15342;SDS011;7771;48.478;8.936;2022-10-22T02:41:08;0.70;;;0.70;;
15342;SDS011;7771;48.478;8.936;2022-10-22T02:43:41;1.80;;;0.70;;
15342;SDS011;7771;48.478;8.936;2022-10-22T02:46:08;0.90;;;0.90;;
15342;SDS011;7771;48.478;8.936;2022-10-22T02:48:34;1.43;;;0.80;;
15342;SDS011;7771;48.478;8.936;2022-10-22T02:51:00;2.53;;;1.00;;
15342;SDS011;7771;48.478;8.936;2022-10-22T02:53:27;1.73;;;0.73;;
15342;SDS011;7771;48.478;8.936;2022-10-22T02:55:54;0.70;;;0.70;;
15342;SDS011;7771;48.478;8.936;2022-10-22T02:58:21;1.47;;;0.77;;
15342;SDS011;7771;48.478;8.936;2022-10-22T03:00:49;0.90;;;0.57;;
15342;SDS011;7771;48.478;8.936;2022-10-22T03:03:16;1.77;;;0.70;;
15342;SDS011;7771;48.478;8.936;2022-10-22T03:05:43;1.90;;;0.80;;
15342;SDS011;7771;48.478;8.936;2022-10-22T03:08:11;0.80;;;0.70;;
15342;SDS011;7771;48.478;8.936;2022-10-22T03:10:38;2.27;;;0.60;;
15342;SDS011;7771;48.478;8.936;2022-10-22T03:13:05;2.23;;;0.60;;
15342;SDS011;7771;48.478;8.936;2022-10-22T03:15:32;0.70;;;0.70;;
15342;SDS011;7771;48.478;8.936;2022-10-22T03:17:59;1.07;;;0.57;;
15342;SDS011;7771;48.478;8.936;2022-10-22T03:20:25;1.20;;;0.67;;
15342;SDS011;7771;48.478;8.936;2022-10-22T03:22:52;2.30;;;0.83;;
15342;SDS011;7771;48.478;8.936;2022-10-22T03:25:20;1.30;;;0.40;;
15342;SDS011;7771;48.478;8.936;2022-10-22T03:27:45;1.60;;;0.60;;
15342;SDS011;7771;48.478;8.936;2022-10-22T03:30:14;0.60;;;0.60;;
15342;SDS011;7771;48.478;8.936;2022-10-22T03:32:40;1.97;;;0.70;;
15342;SDS011;7771;48.478;8.936;2022-10-22T03:35:07;1.83;;;0.77;;
15342;SDS011;7771;48.478;8.936;2022-10-22T03:37:34;0.73;;;0.50;;
15342;SDS011;7771;48.478;8.936;2022-10-22T03:40:01;1.77;;;0.57;;
15342;SDS011;7771;48.478;8.936;2022-10-22T03:42:27;0.97;;;0.60;;
15342;SDS011;7771;48.478;8.936;2022-10-22T03:44:53;0.70;;;0.40;;
15342;SDS011;7771;48.478;8.936;2022-10-22T03:47:21;0.50;;;0.40;;
15342;SDS011;7771;48.478;8.936;2022-10-22T03:49:48;1.23;;;0.50;;
15342;SDS011;7771;48.478;8.936;2022-10-22T03:52:14;0.60;;;0.40;;
15342;SDS011;7771;48.478;8.936;2022-10-22T03:54:41;2.10;;;0.57;;
15342;SDS011;7771;48.478;8.936;2022-10-22T03:57:08;1.00;;;0.73;;
15342;SDS011;7771;48.478;8.936;2022-10-22T03:59:35;0.60;;;0.40;;
15342;SDS011;7771;48.478;8.936;2022-10-22T04:02:01;1.27;;;0.90;;
15342;SDS011;7771;48.478;8.936;2022-10-22T04:04:27;1.20;;;0.67;;
15342;SDS011;7771;48.478;8.936;2022-10-22T04:06:54;2.77;;;0.70;;
15342;SDS011;7771;48.478;8.936;2022-10-22T04:09:21;0.50;;;0.50;;
15342;SDS011;7771;48.478;8.936;2022-10-22T04:11:48;2.13;;;0.67;;
15342;SDS011;7771;48.478;8.936;2022-10-22T04:14:15;0.73;;;0.50;;
15342;SDS011;7771;48.478;8.936;2022-10-22T04:16:42;0.77;;;0.50;;
15342;SDS011;7771;48.478;8.936;2022-10-22T04:19:09;2.30;;;0.80;;
15342;SDS011;7771;48.478;8.936;2022-10-22T04:21:35;1.70;;;0.67;;
15342;SDS011;7771;48.478;8.936;2022-10-22T04:24:02;3.93;;;0.80;;
15342;SDS011;7771;48.478;8.936;2022-10-22T04:26:29;0.80;;;0.67;;
15342;SDS011;7771;48.478;8.936;2022-10-22T04:28:56;1.37;;;0.60;;
15342;SDS011;7771;48.478;8.936;2022-10-22T04:31:24;0.73;;;0.60;;
15342;SDS011;7771;48.478;8.936;2022-10-22T04:33:52;3.00;;;0.80;;
15342;SDS011;7771;48.478;8.936;2022-10-22T04:36:20;2.10;;;0.60;;
15342;SDS011;7771;48.478;8.936;2022-10-22T04:38:51;0.80;;;0.60;;
15342;SDS011;7771;48.478;8.936;2022-10-22T04:41:15;0.93;;;0.60;;
15342;SDS011;7771;48.478;8.936;2022-10-22T04:43:41;0.97;;;0.60;;
15342;SDS011;7771;48.478;8.936;2022-10-22T04:46:08;0.60;;;0.50;;
15342;SDS011;7771;48.478;8.936;2022-10-22T04:48:36;0.57;;;0.50;;
15342;SDS011;7771;48.478;8.936;2022-10-22T04:51:03;2.97;;;0.90;;
15342;SDS011;7771;48.478;8.936;2022-10-22T04:53:29;0.80;;;0.60;;
15342;SDS011;7771;48.478;8.936;2022-10-22T04:56:05;1.10;;;0.63;;
15342;SDS011;7771;48.478;8.936;2022-10-22T04:58:22;0.73;;;0.63;;
15342;SDS011;7771;48.478;8.936;2022-10-22T05:00:49;3.60;;;1.07;;
15342;SDS011;7771;48.478;8.936;2022-10-22T05:03:16;1.00;;;0.90;;
15342;SDS011;7771;48.478;8.936;2022-10-22T05:05:43;2.07;;;1.00;;
15342;SDS011;7771;48.478;8.936;2022-10-22T05:08:09;0.70;;;0.67;;
15342;SDS011;7771;48.478;8.936;2022-10-22T05:10:37;0.70;;;0.70;;
15342;SDS011;7771;48.478;8.936;2022-10-22T05:13:04;1.53;;;0.87;;
15342;SDS011;7771;48.478;8.936;2022-10-22T05:15:32;4.87;;;0.70;;
15342;SDS011;7771;48.478;8.936;2022-10-22T05:17:58;1.27;;;0.80;;
15342;SDS011;7771;48.478;8.936;2022-10-22T05:20:26;2.60;;;0.83;;
15342;SDS011;7771;48.478;8.936;2022-10-22T05:22:53;1.33;;;0.90;;
15342;SDS011;7771;48.478;8.936;2022-10-22T05:25:19;1.53;;;1.03;;
15342;SDS011;7771;48.478;8.936;2022-10-22T05:27:48;2.17;;;1.00;;
15342;SDS011;7771;48.478;8.936;2022-10-22T05:30:14;3.67;;;1.17;;
15342;SDS011;7771;48.478;8.936;2022-10-22T05:32:41;1.23;;;1.03;;
15342;SDS011;7771;48.478;8.936;2022-10-22T05:35:07;1.13;;;1.00;;
15342;SDS011;7771;48.478;8.936;2022-10-22T05:37:35;1.97;;;0.90;;
15342;SDS011;7771;48.478;8.936;2022-10-22T05:40:02;0.70;;;0.70;;
15342;SDS011;7771;48.478;8.936;2022-10-22T05:42:30;2.33;;;1.00;;
15342;SDS011;7771;48.478;8.936;2022-10-22T05:44:56;2.83;;;1.10;;
15342;SDS011;7771;48.478;8.936;2022-10-22T05:47:23;1.20;;;0.70;;
15342;SDS011;7771;48.478;8.936;2022-10-22T05:49:49;1.50;;;0.90;;
15342;SDS011;7771;48.478;8.936;2022-10-22T05:52:16;2.50;;;0.90;;
15342;SDS011;7771;48.478;8.936;2022-10-22T05:54:42;1.53;;;1.10;;
15342;SDS011;7771;48.478;8.936;2022-10-22T05:57:09;1.70;;;1.20;;
15342;SDS011;7771;48.478;8.936;2022-10-22T05:59:36;1.90;;;1.10;;
15342;SDS011;7771;48.478;8.936;2022-10-22T06:02:02;2.63;;;0.90;;
15342;SDS011;7771;48.478;8.936;2022-10-22T06:04:29;1.70;;;1.03;;
15342;SDS011;7771;48.478;8.936;2022-10-22T06:06:56;3.30;;;1.60;;
15342;SDS011;7771;48.478;8.936;2022-10-22T06:09:28;3.33;;;1.63;;
15342;SDS011;7771;48.478;8.936;2022-10-22T06:11:54;1.97;;;1.20;;
15342;SDS011;7771;48.478;8.936;2022-10-22T06:14:21;3.67;;;1.20;;
15342;SDS011;7771;48.478;8.936;2022-10-22T06:16:49;3.73;;;1.10;;
15342;SDS011;7771;48.478;8.936;2022-10-22T06:19:16;2.17;;;1.60;;
15342;SDS011;7771;48.478;8.936;2022-10-22T06:21:43;3.10;;;1.20;;
15342;SDS011;7771;48.478;8.936;2022-10-22T06:24:10;2.23;;;1.20;;
15342;SDS011;7771;48.478;8.936;2022-10-22T06:26:38;2.90;;;1.20;;
15342;SDS011;7771;48.478;8.936;2022-10-22T06:29:05;1.10;;;0.77;;
15342;SDS011;7771;48.478;8.936;2022-10-22T06:31:33;1.23;;;1.00;;
15342;SDS011;7771;48.478;8.936;2022-10-22T06:34:02;2.43;;;0.90;;
15342;SDS011;7771;48.478;8.936;2022-10-22T06:36:29;1.20;;;1.10;;
15342;SDS011;7771;48.478;8.936;2022-10-22T06:38:56;0.80;;;0.80;;
15342;SDS011;7771;48.478;8.936;2022-10-22T06:41:22;1.50;;;1.40;;
15342;SDS011;7771;48.478;8.936;2022-10-22T06:43:49;4.63;;;1.20;;
15342;SDS011;7771;48.478;8.936;2022-10-22T06:46:17;1.70;;;1.20;;
15342;SDS011;7771;48.478;8.936;2022-10-22T06:48:47;1.73;;;1.27;;
15342;SDS011;7771;48.478;8.936;2022-10-22T06:51:14;2.93;;;1.47;;
15342;SDS011;7771;48.478;8.936;2022-10-22T06:53:40;1.47;;;1.37;;
15342;SDS011;7771;48.478;8.936;2022-10-22T06:56:09;2.40;;;1.40;;
15342;SDS011;7771;48.478;8.936;2022-10-22T06:58:35;4.97;;;1.90;;
15342;SDS011;7771;48.478;8.936;2022-10-22T07:01:04;2.23;;;1.87;;
15342;SDS011;7771;48.478;8.936;2022-10-22T07:03:32;2.30;;;1.50;;
15342;SDS011;7771;48.478;8.936;2022-10-22T07:06:01;2.17;;;1.30;;
15342;SDS011;7771;48.478;8.936;2022-10-22T07:08:28;1.70;;;1.10;;
15342;SDS011;7771;48.478;8.936;2022-10-22T07:10:56;4.00;;;1.43;;
15342;SDS011;7771;48.478;8.936;2022-10-22T07:13:23;3.73;;;2.20;;
15342;SDS011;7771;48.478;8.936;2022-10-22T07:15:51;1.53;;;1.40;;
15342;SDS011;7771;48.478;8.936;2022-10-22T07:18:17;1.90;;;1.40;;
15342;SDS011;7771;48.478;8.936;2022-10-22T07:20:45;1.77;;;1.60;;
15342;SDS011;7771;48.478;8.936;2022-10-22T07:23:11;2.33;;;1.70;;
15342;SDS011;7771;48.478;8.936;2022-10-22T07:25:39;1.97;;;1.70;;
15342;SDS011;7771;48.478;8.936;2022-10-22T07:28:05;2.33;;;2.10;;
15342;SDS011;7771;48.478;8.936;2022-10-22T07:30:32;3.10;;;1.90;;
15342;SDS011;7771;48.478;8.936;2022-10-22T07:32:59;4.67;;;2.03;;
15342;SDS011;7771;48.478;8.936;2022-10-22T07:35:25;2.50;;;2.03;;
15342;SDS011;7771;48.478;8.936;2022-10-22T07:37:52;3.00;;;1.93;;
15342;SDS011;7771;48.478;8.936;2022-10-22T07:40:20;2.47;;;2.27;;
15342;SDS011;7771;48.478;8.936;2022-10-22T07:42:47;3.10;;;2.13;;
15342;SDS011;7771;48.478;8.936;2022-10-22T07:45:15;1.70;;;1.60;;
15342;SDS011;7771;48.478;8.936;2022-10-22T07:47:42;1.63;;;1.33;;
15342;SDS011;7771;48.478;8.936;2022-10-22T07:50:09;5.43;;;1.50;;
15342;SDS011;7771;48.478;8.936;2022-10-22T07:52:37;3.33;;;1.40;;
15342;SDS011;7771;48.478;8.936;2022-10-22T07:55:04;1.77;;;1.20;;
15342;SDS011;7771;48.478;8.936;2022-10-22T07:57:32;3.20;;;2.23;;
15342;SDS011;7771;48.478;8.936;2022-10-22T07:59:59;3.00;;;2.23;;
15342;SDS011;7771;48.478;8.936;2022-10-22T08:02:26;8.90;;;3.03;;
15342;SDS011;7771;48.478;8.936;2022-10-22T08:04:53;5.07;;;2.60;;
15342;SDS011;7771;48.478;8.936;2022-10-22T08:07:20;4.17;;;2.50;;
15342;SDS011;7771;48.478;8.936;2022-10-22T08:09:47;2.78;;;1.50;;
15342;SDS011;7771;48.478;8.936;2022-10-22T08:12:14;3.53;;;1.70;;
15342;SDS011;7771;48.478;8.936;2022-10-22T08:14:41;2.42;;;1.60;;
15342;SDS011;7771;48.478;8.936;2022-10-22T08:17:07;2.75;;;1.15;;
15342;SDS011;7771;48.478;8.936;2022-10-22T08:19:34;1.55;;;1.12;;
15342;SDS011;7771;48.478;8.936;2022-10-22T08:22:01;1.77;;;1.25;;
15342;SDS011;7771;48.478;8.936;2022-10-22T08:24:28;4.00;;;1.58;;
15342;SDS011;7771;48.478;8.936;2022-10-22T08:26:55;3.15;;;1.42;;
15342;SDS011;7771;48.478;8.936;2022-10-22T08:29:23;2.30;;;1.37;;
15342;SDS011;7771;48.478;8.936;2022-10-22T08:31:50;2.62;;;1.50;;
15342;SDS011;7771;48.478;8.936;2022-10-22T08:34:17;3.72;;;1.70;;
15342;SDS011;7771;48.478;8.936;2022-10-22T08:36:44;3.85;;;2.35;;
15342;SDS011;7771;48.478;8.936;2022-10-22T08:39:11;1.40;;;1.20;;
15342;SDS011;7771;48.478;8.936;2022-10-22T08:41:43;1.23;;;1.00;;
15342;SDS011;7771;48.478;8.936;2022-10-22T08:46:53;3.05;;;1.27;;
15342;SDS011;7771;48.478;8.936;2022-10-22T08:49:19;2.83;;;0.93;;
15342;SDS011;7771;48.478;8.936;2022-10-22T08:51:45;1.67;;;1.50;;
15342;SDS011;7771;48.478;8.936;2022-10-22T08:57:02;1.45;;;0.88;;
15342;SDS011;7771;48.478;8.936;2022-10-22T08:59:27;1.10;;;0.70;;
15342;SDS011;7771;48.478;8.936;2022-10-22T09:01:53;1.58;;;0.95;;
15342;SDS011;7771;48.478;8.936;2022-10-22T09:04:21;1.50;;;1.00;;
15342;SDS011;7771;48.478;8.936;2022-10-22T09:06:48;1.37;;;0.90;;
15342;SDS011;7771;48.478;8.936;2022-10-22T09:09:15;2.50;;;0.80;;
15342;SDS011;7771;48.478;8.936;2022-10-22T09:11:44;3.00;;;1.05;;
15342;SDS011;7771;48.478;8.936;2022-10-22T09:14:11;1.00;;;0.90;;
15342;SDS011;7771;48.478;8.936;2022-10-22T09:16:42;1.23;;;0.70;;
15342;SDS011;7771;48.478;8.936;2022-10-22T09:19:17;3.10;;;0.90;;
15342;SDS011;7771;48.478;8.936;2022-10-22T09:22:06;0.93;;;0.90;;
15342;SDS011;7771;48.478;8.936;2022-10-22T09:24:46;3.67;;;1.00;;
15342;SDS011;7771;48.478;8.936;2022-10-22T09:27:12;2.12;;;1.55;;
15342;SDS011;7771;48.478;8.936;2022-10-22T09:29:38;1.77;;;0.90;;
15342;SDS011;7771;48.478;8.936;2022-10-22T09:32:05;1.62;;;0.95;;
15342;SDS011;7771;48.478;8.936;2022-10-22T09:34:31;2.35;;;0.70;;
15342;SDS011;7771;48.478;8.936;2022-10-22T09:37:00;2.05;;;0.98;;
15342;SDS011;7771;48.478;8.936;2022-10-22T09:39:27;1.02;;;0.80;;
15342;SDS011;7771;48.478;8.936;2022-10-22T09:41:53;1.42;;;0.88;;
15342;SDS011;7771;48.478;8.936;2022-10-22T09:44:20;4.03;;;0.98;;
15342;SDS011;7771;48.478;8.936;2022-10-22T09:46:46;1.40;;;1.00;;
15342;SDS011;7771;48.478;8.936;2022-10-22T09:49:15;5.75;;;2.58;;
15342;SDS011;7771;48.478;8.936;2022-10-22T09:51:50;1.65;;;0.98;;
15342;SDS011;7771;48.478;8.936;2022-10-22T09:54:17;3.05;;;0.85;;
15342;SDS011;7771;48.478;8.936;2022-10-22T09:56:47;1.75;;;1.02;;
15342;SDS011;7771;48.478;8.936;2022-10-22T09:59:13;3.12;;;0.90;;
15342;SDS011;7771;48.478;8.936;2022-10-22T10:01:39;1.10;;;0.90;;
15342;SDS011;7771;48.478;8.936;2022-10-22T10:04:07;1.83;;;1.10;;
15342;SDS011;7771;48.478;8.936;2022-10-22T10:06:34;2.33;;;1.48;;
15342;SDS011;7771;48.478;8.936;2022-10-22T10:09:04;1.15;;;0.82;;
15342;SDS011;7771;48.478;8.936;2022-10-22T10:11:31;2.62;;;1.10;;
15342;SDS011;7771;48.478;8.936;2022-10-22T10:14:05;2.28;;;1.15;;
15342;SDS011;7771;48.478;8.936;2022-10-22T10:19:11;1.90;;;1.00;;
15342;SDS011;7771;48.478;8.936;2022-10-22T10:21:48;0.75;;;0.75;;
15342;SDS011;7771;48.478;8.936;2022-10-22T10:24:23;1.20;;;1.10;;
15342;SDS011;7771;48.478;8.936;2022-10-22T10:27:12;3.50;;;1.10;;
15342;SDS011;7771;48.478;8.936;2022-10-22T10:29:40;1.45;;;1.02;;
15342;SDS011;7771;48.478;8.936;2022-10-22T10:32:16;2.12;;;1.30;;
15342;SDS011;7771;48.478;8.936;2022-10-22T10:37:29;2.22;;;0.98;;
15342;SDS011;7771;48.478;8.936;2022-10-22T10:41:05;3.37;;;2.00;;
15342;SDS011;7771;48.478;8.936;2022-10-22T10:42:49;2.97;;;1.60;;
15342;SDS011;7771;48.478;8.936;2022-10-22T10:45:22;1.98;;;1.30;;
15342;SDS011;7771;48.478;8.936;2022-10-22T10:50:29;2.72;;;0.95;;
15342;SDS011;7771;48.478;8.936;2022-10-22T10:53:12;3.15;;;0.90;;
15342;SDS011;7771;48.478;8.936;2022-10-22T10:56:05;3.35;;;1.12;;
15342;SDS011;7771;48.478;8.936;2022-10-22T10:58:38;2.05;;;0.90;;
15342;SDS011;7771;48.478;8.936;2022-10-22T11:03:53;3.45;;;1.17;;
15342;SDS011;7771;48.478;8.936;2022-10-22T11:06:23;3.08;;;1.23;;
15342;SDS011;7771;48.478;8.936;2022-10-22T11:08:53;2.42;;;1.42;;
15342;SDS011;7771;48.478;8.936;2022-10-22T11:11:29;1.37;;;0.90;;
15342;SDS011;7771;48.478;8.936;2022-10-22T11:13:55;2.78;;;0.98;;
15342;SDS011;7771;48.478;8.936;2022-10-22T11:19:19;3.65;;;1.10;;
15342;SDS011;7771;48.478;8.936;2022-10-22T11:21:50;3.45;;;1.73;;
15342;SDS011;7771;48.478;8.936;2022-10-22T11:24:21;3.95;;;0.95;;
15342;SDS011;7771;48.478;8.936;2022-10-22T11:26:52;2.53;;;1.25;;
15342;SDS011;7771;48.478;8.936;2022-10-22T11:29:20;2.90;;;1.20;;
15342;SDS011;7771;48.478;8.936;2022-10-22T11:31:44;2.37;;;1.30;;
15342;SDS011;7771;48.478;8.936;2022-10-22T11:34:15;2.70;;;0.85;;
15342;SDS011;7771;48.478;8.936;2022-10-22T11:36:40;2.30;;;1.10;;
15342;SDS011;7771;48.478;8.936;2022-10-22T11:39:13;4.82;;;1.10;;
15342;SDS011;7771;48.478;8.936;2022-10-22T11:41:34;4.95;;;3.35;;
15342;SDS011;7771;48.478;8.936;2022-10-22T11:44:08;2.47;;;1.30;;
15342;SDS011;7771;48.478;8.936;2022-10-22T11:46:38;3.12;;;1.15;;
15342;SDS011;7771;48.478;8.936;2022-10-22T11:49:17;3.05;;;1.20;;
15342;SDS011;7771;48.478;8.936;2022-10-22T11:51:44;2.12;;;1.02;;
15342;SDS011;7771;48.478;8.936;2022-10-22T11:56:51;4.47;;;2.22;;
15342;SDS011;7771;48.478;8.936;2022-10-22T12:01:58;6.22;;;1.40;;
15342;SDS011;7771;48.478;8.936;2022-10-22T12:04:38;3.53;;;1.00;;
15342;SDS011;7771;48.478;8.936;2022-10-22T12:06:53;1.95;;;1.30;;
15342;SDS011;7771;48.478;8.936;2022-10-22T12:09:22;2.40;;;0.82;;
15342;SDS011;7771;48.478;8.936;2022-10-22T12:11:49;1.48;;;0.80;;
15342;SDS011;7771;48.478;8.936;2022-10-22T12:14:21;3.90;;;1.27;;
15342;SDS011;7771;48.478;8.936;2022-10-22T12:16:51;2.30;;;0.80;;
15342;SDS011;7771;48.478;8.936;2022-10-22T12:19:29;2.35;;;1.20;;
15342;SDS011;7771;48.478;8.936;2022-10-22T12:21:58;1.98;;;1.00;;
15342;SDS011;7771;48.478;8.936;2022-10-22T12:24:23;2.00;;;1.00;;
15342;SDS011;7771;48.478;8.936;2022-10-22T12:26:51;1.45;;;0.93;;
15342;SDS011;7771;48.478;8.936;2022-10-22T12:29:20;2.53;;;1.05;;
15342;SDS011;7771;48.478;8.936;2022-10-22T12:31:46;2.05;;;0.90;;
15342;SDS011;7771;48.478;8.936;2022-10-22T12:34:14;1.67;;;1.12;;
15342;SDS011;7771;48.478;8.936;2022-10-22T12:36:41;3.72;;;1.10;;
15342;SDS011;7771;48.478;8.936;2022-10-22T12:39:11;2.90;;;0.80;;
15342;SDS011;7771;48.478;8.936;2022-10-22T12:41:36;4.03;;;1.25;;
15342;SDS011;7771;48.478;8.936;2022-10-22T12:44:03;2.30;;;0.75;;
15342;SDS011;7771;48.478;8.936;2022-10-22T12:46:31;3.37;;;1.10;;
15342;SDS011;7771;48.478;8.936;2022-10-22T12:48:58;3.45;;;1.02;;
15342;SDS011;7771;48.478;8.936;2022-10-22T12:51:25;3.92;;;1.23;;
15342;SDS011;7771;48.478;8.936;2022-10-22T12:53:53;5.82;;;1.10;;
15342;SDS011;7771;48.478;8.936;2022-10-22T12:56:22;1.92;;;0.70;;
15342;SDS011;7771;48.478;8.936;2022-10-22T13:01:33;2.28;;;0.90;;
15342;SDS011;7771;48.478;8.936;2022-10-22T13:04:05;1.87;;;0.88;;
15342;SDS011;7771;48.478;8.936;2022-10-22T13:06:33;2.42;;;1.00;;
15342;SDS011;7771;48.478;8.936;2022-10-22T13:09:11;1.90;;;1.10;;
15342;SDS011;7771;48.478;8.936;2022-10-22T13:11:40;2.08;;;0.80;;
15342;SDS011;7771;48.478;8.936;2022-10-22T13:14:27;2.45;;;0.90;;
15342;SDS011;7771;48.478;8.936;2022-10-22T13:20:10;3.95;;;1.10;;
15342;SDS011;7771;48.478;8.936;2022-10-22T13:24:47;1.55;;;0.70;;
15342;SDS011;7771;48.478;8.936;2022-10-22T13:27:13;4.32;;;1.17;;
15342;SDS011;7771;48.478;8.936;2022-10-22T13:29:40;1.48;;;0.90;;
15342;SDS011;7771;48.478;8.936;2022-10-22T13:32:38;1.75;;;0.75;;
15342;SDS011;7771;48.478;8.936;2022-10-22T13:34:51;1.85;;;0.80;;
15342;SDS011;7771;48.478;8.936;2022-10-22T13:37:18;2.05;;;1.08;;
15342;SDS011;7771;48.478;8.936;2022-10-22T13:39:45;2.33;;;1.30;;
15342;SDS011;7771;48.478;8.936;2022-10-22T13:42:13;2.65;;;0.98;;
15342;SDS011;7771;48.478;8.936;2022-10-22T13:44:40;2.90;;;1.20;;
15342;SDS011;7771;48.478;8.936;2022-10-22T13:47:10;2.55;;;0.90;;
15342;SDS011;7771;48.478;8.936;2022-10-22T13:49:35;2.85;;;0.93;;
15342;SDS011;7771;48.478;8.936;2022-10-22T13:52:02;3.10;;;1.00;;
15342;SDS011;7771;48.478;8.936;2022-10-22T13:54:28;4.18;;;1.00;;
15342;SDS011;7771;48.478;8.936;2022-10-22T13:56:56;2.42;;;1.15;;
15342;SDS011;7771;48.478;8.936;2022-10-22T13:59:23;5.20;;;1.45;;
15342;SDS011;7771;48.478;8.936;2022-10-22T14:01:50;1.30;;;0.95;;
15342;SDS011;7771;48.478;8.936;2022-10-22T14:04:17;3.28;;;1.20;;
15342;SDS011;7771;48.478;8.936;2022-10-22T14:06:45;4.75;;;1.00;;
15342;SDS011;7771;48.478;8.936;2022-10-22T14:09:12;4.35;;;0.88;;
15342;SDS011;7771;48.478;8.936;2022-10-22T14:11:38;1.40;;;0.90;;
15342;SDS011;7771;48.478;8.936;2022-10-22T14:14:04;2.40;;;1.00;;
15342;SDS011;7771;48.478;8.936;2022-10-22T14:16:31;2.03;;;1.15;;
15342;SDS011;7771;48.478;8.936;2022-10-22T14:18:58;3.05;;;1.20;;
15342;SDS011;7771;48.478;8.936;2022-10-22T14:21:24;2.53;;;1.40;;
15342;SDS011;7771;48.478;8.936;2022-10-22T14:23:51;1.92;;;1.10;;
15342;SDS011;7771;48.478;8.936;2022-10-22T14:26:21;3.20;;;0.80;;
15342;SDS011;7771;48.478;8.936;2022-10-22T14:28:45;3.12;;;0.93;;
15342;SDS011;7771;48.478;8.936;2022-10-22T14:31:12;4.25;;;1.12;;
15342;SDS011;7771;48.478;8.936;2022-10-22T14:33:39;2.75;;;1.37;;
15342;SDS011;7771;48.478;8.936;2022-10-22T14:36:05;4.85;;;1.42;;
15342;SDS011;7771;48.478;8.936;2022-10-22T14:38:32;2.85;;;1.62;;
15342;SDS011;7771;48.478;8.936;2022-10-22T14:40:59;2.60;;;1.20;;
15342;SDS011;7771;48.478;8.936;2022-10-22T14:43:27;2.33;;;1.37;;
15342;SDS011;7771;48.478;8.936;2022-10-22T14:45:54;3.90;;;1.48;;
15342;SDS011;7771;48.478;8.936;2022-10-22T14:48:21;2.05;;;1.15;;
15342;SDS011;7771;48.478;8.936;2022-10-22T14:50:48;3.10;;;1.40;;
15342;SDS011;7771;48.478;8.936;2022-10-22T14:53:14;4.03;;;1.27;;
15342;SDS011;7771;48.478;8.936;2022-10-22T14:55:42;3.12;;;1.27;;
15342;SDS011;7771;48.478;8.936;2022-10-22T14:58:10;2.33;;;1.30;;
15342;SDS011;7771;48.478;8.936;2022-10-22T15:00:39;3.17;;;1.33;;
15342;SDS011;7771;48.478;8.936;2022-10-22T15:03:06;3.53;;;1.17;;
15342;SDS011;7771;48.478;8.936;2022-10-22T15:05:33;3.53;;;1.17;;
15342;SDS011;7771;48.478;8.936;2022-10-22T15:08:00;3.47;;;1.00;;
15342;SDS011;7771;48.478;8.936;2022-10-22T15:10:26;4.75;;;1.00;;
15342;SDS011;7771;48.478;8.936;2022-10-22T15:12:53;3.97;;;1.30;;
15342;SDS011;7771;48.478;8.936;2022-10-22T15:15:20;4.75;;;1.33;;
15342;SDS011;7771;48.478;8.936;2022-10-22T15:17:46;2.25;;;1.83;;
15342;SDS011;7771;48.478;8.936;2022-10-22T15:20:13;1.95;;;1.17;;
15342;SDS011;7771;48.478;8.936;2022-10-22T15:22:40;3.65;;;1.60;;
15342;SDS011;7771;48.478;8.936;2022-10-22T15:25:07;15.10;;;1.98;;
15342;SDS011;7771;48.478;8.936;2022-10-22T15:27:34;3.17;;;1.20;;
15342;SDS011;7771;48.478;8.936;2022-10-22T15:30:01;2.80;;;1.25;;
15342;SDS011;7771;48.478;8.936;2022-10-22T15:32:32;4.57;;;2.28;;
15342;SDS011;7771;48.478;8.936;2022-10-22T15:34:59;6.55;;;2.83;;
15342;SDS011;7771;48.478;8.936;2022-10-22T15:37:25;7.62;;;3.05;;
15342;SDS011;7771;48.478;8.936;2022-10-22T15:39:53;6.12;;;2.75;;
15342;SDS011;7771;48.478;8.936;2022-10-22T15:42:20;6.55;;;2.87;;
15342;SDS011;7771;48.478;8.936;2022-10-22T15:44:47;5.37;;;2.80;;
15342;SDS011;7771;48.478;8.936;2022-10-22T15:47:14;2.95;;;2.53;;